createdAt,value
2022-12-01T00:01:24.973Z,101350.63
2022-12-01T00:03:52.514Z,101358.75
2022-12-01T00:06:19.729Z,101353.31
2022-12-01T00:08:48.550Z,101353.19
2022-12-01T00:11:14.828Z,101350.63
2022-12-01T00:13:41.136Z,101347.06
2022-12-01T00:16:10.934Z,101347.06
2022-12-01T00:18:37.324Z,101348.88
2022-12-01T00:21:05.144Z,101348.03
2022-12-01T00:23:31.447Z,101354.25
2022-12-01T00:26:01.955Z,101345.34
2022-12-01T00:28:28.406Z,101344.50
2022-12-01T00:30:54.712Z,101348.88
2022-12-01T00:33:21.031Z,101348.88
2022-12-01T00:35:47.396Z,101348.03
2022-12-01T00:38:15.138Z,101349.88
2022-12-01T00:40:42.069Z,101353.41
2022-12-01T00:43:08.369Z,101348.69
2022-12-01T00:45:34.713Z,101364.03
2022-12-01T00:48:01.077Z,101359.75
2022-12-01T00:50:27.447Z,101349.88
2022-12-01T00:52:53.736Z,101357.91
2022-12-01T00:55:21.351Z,101357.78
2022-12-01T00:57:47.626Z,101358.75
2022-12-01T01:00:14.559Z,101366.72
2022-12-01T01:02:40.994Z,101366.72
2022-12-01T01:05:07.700Z,101364.03
2022-12-01T01:07:34.137Z,101365.84
2022-12-01T01:10:00.557Z,101363.16
2022-12-01T01:12:28.302Z,101367.56
2022-12-01T01:14:54.594Z,101353.19
2022-12-01T01:17:20.930Z,101357.69
2022-12-01T01:19:47.621Z,101353.19
2022-12-01T01:22:14.164Z,101353.19
2022-12-01T01:24:40.456Z,101354.16
2022-12-01T01:27:06.769Z,101358.56
2022-12-01T01:29:34.453Z,101361.25
2022-12-01T01:32:00.904Z,101362.22
2022-12-01T01:34:27.178Z,101362.22
2022-12-01T01:36:53.487Z,101362.22
2022-12-01T01:39:19.884Z,101358.56
2022-12-01T01:41:46.206Z,101351.47
2022-12-01T01:44:27.369Z,101345.91
2022-12-01T01:46:55.284Z,101347.19
2022-12-01T01:49:21.556Z,101354.06
2022-12-01T01:51:49.208Z,101358.66
2022-12-01T01:54:19.096Z,101357.25
2022-12-01T01:56:46.328Z,101363.03
2022-12-01T01:59:13.481Z,101366.03
2022-12-01T02:01:39.907Z,101372.03
2022-12-01T02:04:07.670Z,101371.59
2022-12-01T02:06:34.008Z,101369.41
2022-12-01T02:09:00.336Z,101365.66
2022-12-01T02:11:39.227Z,101362.75
2022-12-01T02:14:08.740Z,101372.31
2022-12-01T02:16:38.919Z,101369.31
2022-12-01T02:19:13.903Z,101362.75
2022-12-01T02:21:50.946Z,101378.41
2022-12-01T02:27:19.669Z,101397.75
2022-12-01T02:29:59.940Z,101393.00
2022-12-01T02:32:30.908Z,101395.47
2022-12-01T02:34:59.277Z,101389.88
2022-12-01T02:37:30.991Z,101388.91
2022-12-01T02:40:01.200Z,101395.63
2022-12-01T02:42:32.354Z,101396.16
2022-12-01T02:45:01.233Z,101392.41
2022-12-01T02:47:29.125Z,101387.75
2022-12-01T02:49:57.323Z,101395.72
2022-12-01T02:52:24.115Z,101407.19
2022-12-01T02:54:51.126Z,101393.53
2022-12-01T02:57:17.600Z,101395.13
2022-12-01T02:59:46.514Z,101394.06
2022-12-01T03:02:18.731Z,101383.16
2022-12-01T03:04:50.981Z,101383.78
2022-12-01T03:07:26.287Z,101386.34
2022-12-01T03:10:00.295Z,101385.28
2022-12-01T03:12:29.739Z,101370.75
2022-12-01T03:15:01.890Z,101376.75
2022-12-01T03:17:30.490Z,101365.16
2022-12-01T03:20:02.738Z,101370.28
2022-12-01T03:22:33.347Z,101373.84
2022-12-01T03:25:00.188Z,101372.50
2022-12-01T03:27:28.407Z,101372.41
2022-12-01T03:29:56.432Z,101368.00
2022-12-01T03:32:25.635Z,101362.63
2022-12-01T03:34:54.674Z,101367.78
2022-12-01T03:37:24.711Z,101356.13
2022-12-01T03:39:58.761Z,101363.28
2022-12-01T03:42:28.720Z,101366.69
2022-12-01T03:44:56.587Z,101357.63
2022-12-01T03:47:24.706Z,101357.63
2022-12-01T03:49:52.914Z,101352.03
2022-12-01T03:52:24.532Z,101354.47
2022-12-01T03:55:00.094Z,101347.25
2022-12-01T03:57:29.672Z,101344.47
2022-12-01T03:59:56.382Z,101340.78
2022-12-01T04:02:22.745Z,101335.56
2022-12-01T04:04:49.026Z,101326.03
2022-12-01T04:07:15.331Z,101326.25
2022-12-01T04:09:41.646Z,101331.50
2022-12-01T04:12:11.723Z,101315.13
2022-12-01T04:14:38.065Z,101325.91
2022-12-01T04:17:04.382Z,101329.44
2022-12-01T04:19:30.681Z,101327.59
2022-12-01T04:21:56.984Z,101333.97
2022-12-01T04:24:23.328Z,101331.03
2022-12-01T04:26:49.634Z,101339.09
2022-12-01T04:29:17.297Z,101337.28
2022-12-01T04:31:43.804Z,101337.03
2022-12-01T04:34:10.624Z,101334.47
2022-12-01T04:36:36.920Z,101338.13
2022-12-01T04:39:03.746Z,101335.34
2022-12-01T04:41:30.005Z,101339.84
2022-12-01T04:43:56.506Z,101336.28
2022-12-01T04:46:24.635Z,101337.88
2022-12-01T04:48:51.328Z,101333.25
2022-12-01T04:51:17.661Z,101332.28
2022-12-01T04:53:44.278Z,101329.09
2022-12-01T04:56:10.577Z,101326.88
2022-12-01T04:58:37.076Z,101328.59
2022-12-01T05:01:04.299Z,101328.34
2022-12-01T05:03:32.068Z,101332.75
2022-12-01T05:06:01.065Z,101330.81
2022-12-01T05:08:27.344Z,101334.72
2022-12-01T05:10:54.709Z,101333.88
2022-12-01T05:13:21.006Z,101339.13
2022-12-01T05:15:47.711Z,101332.03
2022-12-01T05:18:14.147Z,101326.53
2022-12-01T05:20:41.741Z,101326.41
2022-12-01T05:23:10.785Z,101326.66
2022-12-01T05:25:39.923Z,101331.81
2022-12-01T05:28:06.220Z,101333.75
2022-12-01T05:30:32.579Z,101338.88
2022-12-01T05:32:58.909Z,101339.13
2022-12-01T05:35:25.332Z,101340.72
2022-12-01T05:37:52.869Z,101345.72
2022-12-01T05:40:19.209Z,101344.03
2022-12-01T05:42:45.503Z,101341.88
2022-12-01T05:45:11.823Z,101343.75
2022-12-01T05:47:38.358Z,101347.25
2022-12-01T05:50:05.924Z,101348.59
2022-12-01T05:52:33.376Z,101356.97
2022-12-01T05:55:01.032Z,101351.31
2022-12-01T05:57:27.344Z,101349.63
2022-12-01T05:59:53.608Z,101361.81
2022-12-01T06:02:19.885Z,101357.72
2022-12-01T06:04:46.204Z,101367.63
2022-12-01T06:07:12.625Z,101367.22
2022-12-01T06:09:38.922Z,101362.06
2022-12-01T06:12:06.629Z,101364.25
2022-12-01T06:14:32.986Z,101360.81
2022-12-01T06:16:59.365Z,101369.63
2022-12-01T06:19:25.827Z,101366.41
2022-12-01T06:21:52.112Z,101369.63
2022-12-01T06:24:18.416Z,101371.56
2022-12-01T06:26:44.878Z,101368.34
2022-12-01T06:29:12.469Z,101383.59
2022-12-01T06:31:38.882Z,101376.34
2022-12-01T06:34:05.234Z,101384.78
2022-12-01T06:36:31.579Z,101386.78
2022-12-01T06:38:58.027Z,101387.78
2022-12-01T06:41:24.324Z,101387.69
2022-12-01T06:43:50.609Z,101389.31
2022-12-01T06:46:18.674Z,101397.09
2022-12-01T06:48:47.456Z,101394.09
2022-12-01T06:51:13.892Z,101391.28
2022-12-01T06:53:40.191Z,101401.06
2022-12-01T06:56:06.759Z,101392.75
2022-12-01T06:58:33.308Z,101399.00
2022-12-01T07:01:00.265Z,101402.19
2022-12-01T07:03:27.922Z,101401.84
2022-12-01T07:05:55.133Z,101413.56
2022-12-01T07:08:21.468Z,101417.34
2022-12-01T07:10:56.434Z,101411.03
2022-12-01T07:13:22.765Z,101410.78
2022-12-01T07:15:49.067Z,101413.56
2022-12-01T07:18:15.441Z,101412.53
2022-12-01T07:20:43.058Z,101423.91
2022-12-01T07:23:09.520Z,101423.06
2022-12-01T07:25:35.785Z,101427.44
2022-12-01T07:28:02.071Z,101424.63
2022-12-01T07:30:28.777Z,101427.22
2022-12-01T07:32:55.399Z,101430.75
2022-12-01T07:35:22.369Z,101427.09
2022-12-01T07:37:53.577Z,101434.31
2022-12-01T07:40:19.938Z,101426.63
2022-12-01T07:42:46.723Z,101425.78
2022-12-01T07:45:13.096Z,101436.53
2022-12-01T07:47:39.486Z,101432.88
2022-12-01T07:50:06.266Z,101424.69
2022-12-01T07:52:32.588Z,101428.34
2022-12-01T07:55:00.490Z,101439.84
2022-12-01T07:57:26.814Z,101426.41
2022-12-01T07:59:53.151Z,101440.56
2022-12-01T08:02:19.624Z,101436.94
2022-12-01T08:04:46.105Z,101435.09
2022-12-01T08:07:12.434Z,101430.44
2022-12-01T08:09:38.760Z,101427.66
2022-12-01T08:12:06.586Z,101424.81
2022-12-01T08:14:32.977Z,101413.97
2022-12-01T08:16:59.256Z,101422.88
2022-12-01T08:19:25.573Z,101414.69
2022-12-01T08:21:51.878Z,101407.13
2022-12-01T08:24:18.201Z,101416.06
2022-12-01T08:26:44.653Z,101412.28
2022-12-01T08:29:17.026Z,101427.22
2022-12-01T08:31:46.125Z,101415.34
2022-12-01T08:34:12.461Z,101415.09
2022-12-01T08:36:38.836Z,101424.66
2022-12-01T08:39:06.967Z,101420.97
2022-12-01T08:41:33.240Z,101419.16
2022-12-01T08:44:00.377Z,101412.69
2022-12-01T08:46:31.533Z,101413.41
2022-12-01T08:48:58.304Z,101418.53
2022-12-01T08:51:25.284Z,101418.44
2022-12-01T08:53:51.639Z,101414.53
2022-12-01T08:56:18.808Z,101418.69
2022-12-01T08:58:45.347Z,101418.69
2022-12-01T09:01:12.821Z,101419.91
2022-12-01T09:03:40.909Z,101419.38
2022-12-01T09:06:08.392Z,101413.81
2022-12-01T09:08:35.353Z,101415.00
2022-12-01T09:11:03.350Z,101424.41
2022-12-01T09:13:30.153Z,101412.03
2022-12-01T09:15:57.556Z,101415.94
2022-12-01T09:18:24.438Z,101422.44
2022-12-01T09:20:52.103Z,101426.97
2022-12-01T09:23:18.786Z,101429.38
2022-12-01T09:25:45.190Z,101424.34
2022-12-01T09:28:11.572Z,101427.25
2022-12-01T09:30:38.088Z,101427.59
2022-12-01T09:33:04.424Z,101418.28
2022-12-01T09:35:31.447Z,101434.28
2022-12-01T09:37:59.218Z,101431.78
2022-12-01T09:40:31.309Z,101435.03
2022-12-01T09:42:58.348Z,101435.38
2022-12-01T09:45:25.714Z,101429.19
2022-12-01T09:47:59.341Z,101428.50
2022-12-01T09:50:26.815Z,101436.34
2022-12-01T09:52:56.915Z,101435.25
2022-12-01T09:55:25.079Z,101436.81
2022-12-01T09:57:52.754Z,101434.03
2022-12-01T10:00:20.394Z,101438.19
2022-12-01T10:02:49.518Z,101429.16
2022-12-01T10:05:18.416Z,101428.19
2022-12-01T10:07:48.077Z,101432.44
2022-12-01T10:10:16.574Z,101426.97
2022-12-01T10:12:46.581Z,101439.44
2022-12-01T10:15:15.674Z,101433.94
2022-12-01T10:17:46.265Z,101442.75
2022-12-01T10:20:16.293Z,101432.84
2022-12-01T10:22:48.973Z,101427.59
2022-12-01T10:25:20.016Z,101432.59
2022-12-01T10:27:51.967Z,101436.03
2022-12-01T10:30:20.019Z,101439.47
2022-12-01T10:32:51.296Z,101436.66
2022-12-01T10:35:18.716Z,101432.13
2022-12-01T10:37:45.829Z,101419.53
2022-12-01T10:40:12.529Z,101432.84
2022-12-01T10:42:41.040Z,101428.31
2022-12-01T10:45:13.720Z,101428.22
2022-12-01T10:48:00.014Z,101417.22
2022-12-01T10:50:27.080Z,101425.38
2022-12-01T10:52:53.441Z,101413.66
2022-12-01T10:55:25.132Z,101410.00
2022-12-01T10:57:52.676Z,101408.16
2022-12-01T11:00:57.509Z,101403.50
2022-12-01T11:03:21.574Z,101403.38
2022-12-01T11:05:51.037Z,101400.69
2022-12-01T11:08:21.674Z,101406.81
2022-12-01T11:10:48.883Z,101411.34
2022-12-01T11:13:20.639Z,101409.28
2022-12-01T11:15:51.696Z,101395.91
2022-12-01T11:18:21.130Z,101393.13
2022-12-01T11:20:47.699Z,101397.50
2022-12-01T11:23:23.030Z,101392.88
2022-12-01T11:25:56.335Z,101390.09
2022-12-01T11:28:22.794Z,101392.78
2022-12-01T11:30:56.784Z,101392.78
2022-12-01T11:33:26.867Z,101384.56
2022-12-01T11:35:53.529Z,101393.50
2022-12-01T11:38:29.653Z,101388.09
2022-12-01T11:40:57.442Z,101386.31
2022-12-01T11:43:27.241Z,101388.09
2022-12-01T11:45:54.419Z,101385.19
2022-12-01T11:48:25.392Z,101390.22
2022-12-01T11:51:01.579Z,101385.69
2022-12-01T11:53:28.902Z,101380.03
2022-12-01T11:56:13.091Z,101378.31
2022-12-01T11:58:39.598Z,101386.63
2022-12-01T12:01:16.350Z,101378.53
2022-12-01T12:03:53.398Z,101384.81
2022-12-01T12:09:19.141Z,101372.44
2022-12-01T12:11:49.862Z,101381.38
2022-12-01T12:14:25.118Z,101390.28
2022-12-01T12:17:10.030Z,101386.84
2022-12-01T12:20:07.088Z,101383.31
2022-12-01T12:22:38.548Z,101379.06
2022-12-01T12:25:20.009Z,101386.13
2022-12-01T12:27:50.678Z,101377.22
2022-12-01T12:30:20.791Z,101374.28
2022-12-01T12:32:57.277Z,101369.97
2022-12-01T12:35:30.750Z,101374.53
2022-12-01T12:38:03.553Z,101371.69
2022-12-01T12:40:36.310Z,101371.69
2022-12-01T12:43:08.175Z,101372.69
2022-12-01T12:45:41.584Z,101366.19
2022-12-01T12:48:14.787Z,101366.31
2022-12-01T12:50:45.088Z,101360.91
2022-12-01T12:53:15.602Z,101357.25
2022-12-01T12:55:44.365Z,101366.31
2022-12-01T12:58:13.560Z,101355.53
2022-12-01T13:00:43.746Z,101344.06
2022-12-01T13:03:15.960Z,101356.53
2022-12-01T13:05:46.524Z,101345.84
2022-12-01T13:08:16.022Z,101344.91
2022-12-01T13:10:46.306Z,101330.31
2022-12-01T13:13:24.514Z,101326.66
2022-12-01T13:15:52.527Z,101321.28
2022-12-01T13:18:28.902Z,101312.47
2022-12-01T13:20:57.605Z,101312.47
2022-12-01T13:23:24.445Z,101317.97
2022-12-01T13:25:52.635Z,101330.59
2022-12-01T13:28:20.788Z,101318.94
2022-12-01T13:30:57.026Z,101322.38
2022-12-01T13:33:23.331Z,101315.16
2022-12-01T13:36:22.594Z,101308.91
2022-12-01T13:38:45.347Z,101309.06
2022-12-01T13:41:13.449Z,101309.06
2022-12-01T13:43:49.202Z,101300.09
2022-12-01T13:46:20.580Z,101296.44
2022-12-01T13:48:50.933Z,101301.69
2022-12-01T13:51:17.614Z,101291.78
2022-12-01T13:53:55.916Z,101298.75
2022-12-01T13:56:39.381Z,101291.47
2022-12-01T13:59:22.073Z,101285.78
2022-12-01T14:01:48.506Z,101294.63
2022-12-01T14:04:22.468Z,101282.75
2022-12-01T14:06:49.844Z,101280.91
2022-12-01T14:09:20.651Z,101278.06
2022-12-01T14:11:55.933Z,101274.28
2022-12-01T14:14:26.239Z,101265.38
2022-12-01T14:16:53.813Z,101269.88
2022-12-01T14:19:27.947Z,101268.28
2022-12-01T14:21:54.383Z,101266.69
2022-12-01T14:24:26.531Z,101264.84
2022-12-01T14:26:53.661Z,101261.91
2022-12-01T14:29:24.820Z,101273.41
2022-12-01T14:32:01.053Z,101261.53
2022-12-01T14:34:29.928Z,101267.38
2022-12-01T14:36:57.626Z,101260.03
2022-12-01T14:39:27.100Z,101255.50
2022-12-01T14:41:56.176Z,101253.53
2022-12-01T14:44:25.443Z,101272.41
2022-12-01T14:46:54.549Z,101259.44
2022-12-01T14:49:23.537Z,101262.59
2022-12-01T14:51:52.891Z,101256.09
2022-12-01T14:54:23.466Z,101263.19
2022-12-01T14:56:52.462Z,101260.38
2022-12-01T14:59:20.351Z,101252.16
2022-12-01T15:01:48.852Z,101252.03
2022-12-01T15:04:15.411Z,101250.91
2022-12-01T15:06:41.932Z,101252.75
2022-12-01T15:09:32.656Z,101256.03
2022-12-01T15:11:59.651Z,101256.03
2022-12-01T15:14:31.061Z,101250.53
2022-12-01T15:16:57.812Z,101254.44
2022-12-01T15:19:33.506Z,101249.56
2022-12-01T15:22:02.858Z,101253.94
2022-12-01T15:24:29.268Z,101252.09
2022-12-01T15:27:02.251Z,101253.25
2022-12-01T15:29:33.027Z,101255.78
2022-12-01T15:32:00.407Z,101254.94
2022-12-01T15:34:29.469Z,101246.84
2022-12-01T15:36:55.794Z,101246.84
2022-12-01T15:39:26.023Z,101256.53
2022-12-01T15:41:53.315Z,101260.06
2022-12-01T15:44:21.768Z,101262.63
2022-12-01T15:46:49.527Z,101255.38
2022-12-01T15:49:18.212Z,101258.09
2022-12-01T15:51:45.004Z,101254.44
2022-12-01T15:54:17.492Z,101259.06
2022-12-01T15:56:44.356Z,101259.94
2022-12-01T15:59:19.495Z,101267.91
2022-12-01T16:01:45.938Z,101260.94
2022-12-01T16:04:18.573Z,101253.84
2022-12-01T16:06:52.270Z,101255.38
2022-12-01T16:09:20.873Z,101255.38
2022-12-01T16:12:02.162Z,101263.47
2022-12-01T16:14:28.676Z,101258.97
2022-12-01T16:16:55.288Z,101262.63
2022-12-01T16:19:25.614Z,101261.78
2022-12-01T16:21:53.060Z,101258.97
2022-12-01T16:24:20.821Z,101264.34
2022-12-01T16:26:48.816Z,101259.81
2022-12-01T16:29:18.366Z,101256.28
2022-12-01T16:32:12.724Z,101259.81
2022-12-01T16:34:45.971Z,101256.97
2022-12-01T16:37:20.769Z,101261.28
2022-12-01T16:39:47.550Z,101257.72
2022-12-01T16:42:14.840Z,101265.81
2022-12-01T16:44:41.440Z,101265.81
2022-12-01T16:47:11.964Z,101257.56
2022-12-01T16:49:39.693Z,101253.19
2022-12-01T16:52:42.585Z,101260.31
2022-12-01T16:54:52.610Z,101268.53
2022-12-01T16:57:19.033Z,101263.03
2022-12-01T16:59:45.434Z,101262.44
2022-12-01T17:02:11.954Z,101265.00
2022-12-01T17:04:39.941Z,101264.53
2022-12-01T17:07:06.354Z,101265.72
2022-12-01T17:09:32.773Z,101268.56
2022-12-01T17:11:59.813Z,101260.25
2022-12-01T17:14:26.260Z,101263.53
2022-12-01T17:16:52.574Z,101267.94
2022-12-01T17:19:19.121Z,101263.75
2022-12-01T17:21:46.799Z,101261.91
2022-12-01T17:24:18.720Z,101263.91
2022-12-01T17:26:45.592Z,101272.22
2022-12-01T17:29:12.010Z,101258.63
2022-12-01T17:31:38.557Z,101256.31
2022-12-01T17:34:05.054Z,101258.38
2022-12-01T17:36:31.562Z,101264.00
2022-12-01T17:38:59.244Z,101266.47
2022-12-01T17:41:25.640Z,101273.09
2022-12-01T17:43:52.042Z,101276.03
2022-12-01T17:46:18.864Z,101276.97
2022-12-01T17:48:46.381Z,101273.81
2022-12-01T17:51:13.707Z,101275.91
2022-12-01T17:53:40.305Z,101274.53
2022-12-01T17:56:08.726Z,101271.13
2022-12-01T17:58:35.227Z,101270.38
2022-12-01T18:01:01.643Z,101271.63
2022-12-01T18:03:27.971Z,101271.84
2022-12-01T18:05:54.871Z,101277.25
2022-12-01T18:08:21.407Z,101276.53
2022-12-01T18:10:47.859Z,101277.47
2022-12-01T18:13:15.403Z,101277.63
2022-12-01T18:15:41.810Z,101277.72
2022-12-01T18:18:08.314Z,101280.53
2022-12-01T18:20:34.624Z,101279.94
2022-12-01T18:23:00.926Z,101284.56
2022-12-01T18:25:27.249Z,101277.38
2022-12-01T18:27:53.568Z,101278.56
2022-12-01T18:30:21.198Z,101274.06
2022-12-01T18:32:47.631Z,101281.25
2022-12-01T18:35:14.232Z,101278.69
2022-12-01T18:37:40.604Z,101280.66
2022-12-01T18:40:08.247Z,101278.19
2022-12-01T18:42:34.681Z,101288.94
2022-12-01T18:45:01.016Z,101289.94
2022-12-01T18:47:29.290Z,101290.06
2022-12-01T18:49:55.764Z,101289.44
2022-12-01T18:52:22.047Z,101293.22
2022-12-01T18:54:48.502Z,101287.97
2022-12-01T18:57:15.089Z,101288.84
2022-12-01T18:59:41.407Z,101289.88
2022-12-01T19:02:09.374Z,101291.81
2022-12-01T19:04:37.012Z,101293.56
2022-12-01T19:07:03.280Z,101290.13
2022-12-01T19:09:29.590Z,101290.25
2022-12-01T19:11:56.028Z,101284.97
2022-12-01T19:14:22.379Z,101293.19
2022-12-01T19:16:48.716Z,101285.97
2022-12-01T19:19:15.103Z,101293.03
2022-12-01T19:21:42.959Z,101295.72
2022-12-01T19:24:09.367Z,101289.63
2022-12-01T19:26:35.755Z,101285.22
2022-12-01T19:29:02.283Z,101279.97
2022-12-01T19:31:28.693Z,101280.09
2022-12-01T19:33:55.108Z,101287.19
2022-12-01T19:36:22.996Z,101293.66
2022-12-01T19:38:50.718Z,101292.16
2022-12-01T19:41:17.607Z,101295.94
2022-12-01T19:43:44.011Z,101297.78
2022-12-01T19:46:11.592Z,101298.63
2022-12-01T19:48:38.242Z,101304.84
2022-12-01T19:51:04.883Z,101290.69
2022-12-01T19:53:34.071Z,101293.50
2022-12-01T19:56:02.566Z,101292.63
2022-12-01T19:58:28.891Z,101292.75
2022-12-01T20:00:55.323Z,101293.72
2022-12-01T20:03:21.711Z,101287.50
2022-12-01T20:05:48.004Z,101299.09
2022-12-01T20:08:14.288Z,101289.31
2022-12-01T20:10:45.514Z,101288.47
2022-12-01T20:13:13.154Z,101283.22
2022-12-01T20:15:39.575Z,101291.28
2022-12-01T20:18:05.866Z,101291.28
2022-12-01T20:20:32.212Z,101293.22
2022-12-01T20:22:58.534Z,101286.88
2022-12-01T20:25:24.977Z,101303.97
2022-12-01T20:27:51.340Z,101298.59
2022-12-01T20:30:19.080Z,101295.06
2022-12-01T20:32:45.449Z,101305.91
2022-12-01T20:35:11.878Z,101303.22
2022-12-01T20:37:38.198Z,101303.22
2022-12-01T20:40:04.898Z,101298.84
2022-12-01T20:42:31.237Z,101305.19
2022-12-01T20:44:58.045Z,101310.56
2022-12-01T20:47:25.771Z,101298.13
2022-12-01T20:49:56.951Z,101293.59
2022-12-01T20:52:24.743Z,101301.53
2022-12-01T20:54:51.346Z,101291.00
2022-12-01T20:57:17.923Z,101295.53
2022-12-01T20:59:44.225Z,101296.38
2022-12-01T21:02:10.601Z,101299.19
2022-12-01T21:04:38.213Z,101295.66
2022-12-01T21:07:04.503Z,101292.97
2022-12-01T21:09:30.958Z,101285.84
2022-12-01T21:11:58.706Z,101284.16
2022-12-01T21:14:27.736Z,101284.16
2022-12-01T21:16:56.239Z,101285.84
2022-12-01T21:19:26.127Z,101277.91
2022-12-01T21:21:53.731Z,101282.44
2022-12-01T21:24:21.032Z,101277.06
2022-12-01T21:26:49.242Z,101275.25
2022-12-01T21:29:18.726Z,101266.41
2022-12-01T21:31:45.101Z,101271.69
2022-12-01T21:34:13.825Z,101264.59
2022-12-01T21:36:40.105Z,101263.88
2022-12-01T21:39:12.547Z,101272.78
2022-12-01T21:41:38.858Z,101272.78
2022-12-01T21:44:11.215Z,101270.09
2022-12-01T21:46:37.567Z,101271.06
2022-12-01T21:49:08.791Z,101270.94
2022-12-01T21:51:35.245Z,101277.31
2022-12-01T21:54:01.546Z,101273.84
2022-12-01T21:56:29.418Z,101270.22
2022-12-01T21:58:57.486Z,101273.75
2022-12-01T22:01:26.867Z,101284.59
2022-12-01T22:03:59.084Z,101278.16
2022-12-01T22:06:31.636Z,101270.31
2022-12-01T22:08:59.597Z,101273.84
2022-12-01T22:11:26.913Z,101287.28
2022-12-01T22:13:55.149Z,101283.75
2022-12-01T22:16:22.246Z,101281.91
2022-12-01T22:18:50.595Z,101291.72
2022-12-01T22:21:31.761Z,101287.28
2022-12-01T22:24:01.730Z,101285.59
2022-12-01T22:26:28.006Z,101291.81
2022-12-01T22:28:58.284Z,101299.03
2022-12-01T22:31:25.003Z,101292.91
2022-12-01T22:33:57.657Z,101287.53
2022-12-01T22:36:28.766Z,101284.84
2022-12-01T22:38:55.665Z,101282.16
2022-12-01T22:41:22.829Z,101275.06
2022-12-01T22:43:50.391Z,101281.28
2022-12-01T22:46:27.025Z,101282.28
2022-12-01T22:48:54.474Z,101280.56
2022-12-01T22:51:24.059Z,101278.75
2022-12-01T22:53:53.109Z,101277.03
2022-12-01T22:56:26.476Z,101276.06
2022-12-01T22:58:53.047Z,101269.81
2022-12-01T23:01:21.752Z,101268.97
2022-12-01T23:03:49.500Z,101279.72
2022-12-01T23:06:30.773Z,101271.66
2022-12-01T23:08:57.114Z,101270.78
2022-12-01T23:11:23.403Z,101261.88
2022-12-01T23:13:49.727Z,101259.19
2022-12-01T23:16:16.109Z,101262.00
2022-12-01T23:18:42.478Z,101256.63
2022-12-01T23:21:10.148Z,101257.47
2022-12-01T23:23:37.136Z,101262.09
2022-12-01T23:26:04.101Z,101263.84
2022-12-01T23:28:30.846Z,101258.47
2022-12-01T23:30:58.093Z,101256.72
2022-12-01T23:33:25.849Z,101255.03
2022-12-01T23:35:55.466Z,101256.72
2022-12-01T23:38:24.451Z,101254.03
2022-12-01T23:40:51.789Z,101254.03
2022-12-01T23:43:19.522Z,101252.34
2022-12-01T23:45:46.251Z,101257.69
2022-12-01T23:48:17.082Z,101246.09
2022-12-01T23:50:43.376Z,101255.03
2022-12-01T23:53:18.446Z,101246.09
2022-12-01T23:55:46.050Z,101246.25
2022-12-01T23:58:13.436Z,101258.69
